Last 24 Hours

Canyon Lodge - 8,343ft

5 Minute Data | America/Los_Angeles
as of 7/14/24 3:24 PM PDT
Date & Time Temp (°F) RH (%) Dew Pt (°F) Wet Bulb (°F) Wind Dir (°) Wind Spd (mph) Wind Gust (mph) Wind Gst Dir (°)
7/14/24 - 1520 10.1 62 -0.2 8.3 WSW | 240 3.2 10.2 SW | 216
7/14/24 - 1515 17.7 62 7.0 15.2 NNW | 337 2.8 13.7 NNW | 332
7/14/24 - 1510 17.9 62 7.2 15.4 NNW | 333 4.4 14.1 N | 0
7/14/24 - 1505 18.5 62 7.6 15.9 SW | 220 2.6 12.4 NNW | 344
7/14/24 - 1500 17.5 62 6.7 15.0 W | 275 3.6 13.1 SW | 228
7/14/24 - 1455 15.7 62 4.9 13.4 NNW | 332 2.5 8.4 NW | 318
7/14/24 - 1450 14.0 62 3.5 11.9 NNW | 331 4.0 15.8 WNW | 302
7/14/24 - 1445 17.4 62 6.5 15.0 NNW | 330 4.8 12.6 NW | 321
7/14/24 - 1440 14.5 62 3.9 12.4 N | 359 2.5 10.2 N | 0
7/14/24 - 1435 16.4 62 5.6 14.0 SSE | 153 1.7 5.2 ESE | 118
7/14/24 - 1430 17.0 62 6.3 14.6 NNE | 28 1.7 6.3 NE | 39
7/14/24 - 1425 19.3 61 8.1 16.6 WSW | 257 4.0 11.3 NNE | 27
7/14/24 - 1420 20.1 61 9.0 17.4 W | 268 2.9 15.0 W | 276
7/14/24 - 1415 18.7 61 7.6 16.1 NW | 318 4.0 8.5 NW | 310
7/14/24 - 1410 21.0 62 9.9 18.2 NNW | 336 3.8 10.5 NNW | 338
7/14/24 - 1405 20.8 62 9.8 18.1 NW | 312 3.7 14.4 NW | 322
7/14/24 - 1400 22.8 62 11.6 19.8 NNW | 339 4.0 9.1 NNW | 338
7/14/24 - 1355 21.1 62 9.9 18.2 SSW | 208 2.6 8.5 NW | 326
7/14/24 - 1350 19.0 62 8.1 16.4 NNW | 340 2.3 7.8 N | 0
7/14/24 - 1345 22.2 61 10.7 19.2 N | 11 4.0 8.5 NNW | 345
7/14/24 - 1340 21.6 61 10.3 18.7 NW | 321 2.5 8.5 N | 0
7/14/24 - 1335 22.2 61 10.9 19.3 NW | 323 5.0 12.4 NNW | 336
7/14/24 - 1330 22.7 61 11.3 19.7 NNW | 333 3.0 8.1 W | 266
7/14/24 - 1325 23.5 61 12.2 20.4 S | 182 3.2 14.7 SSW | 198
7/14/24 - 1320 26.1 61 14.4 22.7 SSE | 156 5.9 18.1 SSE | 149
7/14/24 - 1315 27.3 60 15.4 23.7 SE | 128 3.5 11.6 ESE | 113
7/14/24 - 1310 29.5 61 17.7 25.8 N | 4 1.1 5.7 NW | 319
7/14/24 - 1305 26.8 60 14.9 23.3 E | 83 0.4 2.2 E | 94
7/14/24 - 1300 24.1 60 12.4 20.8 SSW | 211 2.3 8.2 SSW | 199
7/14/24 - 1255 26.0 60 14.2 22.6 SW | 218 5.6 12.3 SSW | 195
7/14/24 - 1250 28.8 60 16.6 25.0 E | 82 2.1 11.2 SSE | 156
7/14/24 - 1245 29.5 60 17.4 25.7 SSE | 154 2.5 8.4 S | 184
7/14/24 - 1240 30.3 60 18.0 26.4 S | 188 2.8 6.2 SE | 125
7/14/24 - 1235 29.9 60 17.6 26.0 W | 262 1.2 6.0 SW | 230
7/14/24 - 1230 27.4 59 15.1 23.8 S | 176 1.6 7.0 SSE | 164
7/14/24 - 1225 26.9 60 14.7 23.4 SE | 146 0.6 2.3 E | 99
7/14/24 - 1220 28.4 59 15.8 24.6 N | 1 2.3 5.2 N | 0
7/14/24 - 1215 27.2 59 14.8 23.5 ENE | 76 2.2 8.1 E | 93
7/14/24 - 1210 24.8 59 12.6 21.4 S | 174 0.5 5.2 W | 279
7/14/24 - 1205 23.6 59 11.3 20.3 SSE | 160 2.3 7.4 SE | 136
7/14/24 - 1200 26.4 59 14.2 22.8 SSE | 147 1.2 5.5 SW | 220
7/14/24 - 1155 22.8 60 10.8 19.7 ESE | 117 1.6 6.8 SSW | 194
7/14/24 - 1150 30.8 60 18.4 26.8 WSW | 242 2.4 12.2 NW | 304
7/14/24 - 1145 24.2 59 12.1 20.9 SW | 220 2.4 11.0 SW | 228
7/14/24 - 1140 36.0 59 23.0 31.4 NNE | 25 1.6 4.6 NNW | 347
7/14/24 - 1135 35.8 59 22.9 31.2 SSE | 161 1.5 5.6 SSE | 166
7/14/24 - 1130 34.1 59 21.1 29.6 SSW | 193 4.3 12.1 SSW | 193
7/14/24 - 1125 35.6 58 22.5 31.0 S | 190 5.0 11.1 SSW | 212
7/14/24 - 1120 45.2 59 31.6 39.5 SSE | 157 1.4 5.1 S | 181
7/14/24 - 1115 36.1 58 22.8 31.4 NNE | 24 0.6 3.7 NE | 50
7/14/24 - 1110 37.8 58 24.4 32.9 SW | 233 1.2 5.2 WSW | 238
7/14/24 - 1105 39.9 57 26.2 34.7 SSE | 160 2.1 7.2 SE | 136
7/14/24 - 1100 53.2 57 38.4 46.2 SE | 131 0.5 2.0 SSE | 154
7/14/24 - 1055 67.3 56 50.9 57.9 ESE | 102 0.1 1.5 E | 91
7/14/24 - 1050 82.3 54 64.3 70.1 S | 190 0.2 2.5 S | 183
7/14/24 - 1045 77.1 54 59.1 65.6 NW | 315 1.2 3.7 NW | 319
7/14/24 - 1040 91.2 53 71.8 76.8 W | 280 1.5 4.3 W | 275
7/14/24 - 1035 86.3 53 66.9 72.5 S | 174 0.7 5.5 SSW | 203
7/14/24 - 1030 83.1 52 63.9 69.9 SE | 143 1.9 5.5 ESE | 120
7/14/24 - 1025 91.2 52 71.3 76.3 SSW | 206 1.0 5.2 SW | 228
7/14/24 - 1020 101.6 52 80.6 84.3 WNW | 297 1.6 5.5 SW | 232
7/14/24 - 1015 104.0 52 82.9 86.2 WSW | 252 2.1 6.0 SW | 233
7/14/24 - 1010 98.2 52 77.5 81.7 SW | 236 2.4 6.0 SW | 229
7/14/24 - 1005 87.6 53 68.1 73.6 WSW | 244 1.5 5.4 WSW | 253
7/14/24 - 1000 78.5 53 60.0 66.4 SW | 232 4.2 12.5 SW | 230
7/14/24 - 0955 69.2 54 51.6 58.9 SW | 221 5.2 14.7 WSW | 237
7/14/24 - 0950 62.2 55 45.8 53.4 WSW | 255 4.9 16.8 W | 266
7/14/24 - 0945 53.4 56 38.0 46.1 WSW | 237 4.9 14.7 WSW | 239
7/14/24 - 0940 43.6 57 29.3 37.8 SW | 222 3.5 11.1 SSW | 212
7/14/24 - 0935 47.2 56 32.4 40.8 WSW | 247 4.7 13.4 WSW | 252
7/14/24 - 0930 48.3 56 33.5 41.8 SSW | 206 3.7 17.8 SSW | 209
7/14/24 - 0925 56.7 56 41.4 49.1 W | 264 4.5 18.8 NNW | 342
7/14/24 - 0920 51.7 56 36.6 44.7 WSW | 254 3.4 15.0 SSW | 205
7/14/24 - 0915 55.5 56 39.9 47.9 SW | 231 5.7 17.7 SW | 214
7/14/24 - 0910 56.1 56 40.7 48.5 SW | 219 2.7 13.8 WSW | 248
7/14/24 - 0905 58.7 56 43.1 50.7 SSW | 204 4.2 10.8 SSE | 152
7/14/24 - 0900 59.9 56 44.3 51.8 SSW | 203 3.9 18.1 WSW | 248
7/14/24 - 0855 59.0 56 43.2 50.9 SSE | 158 3.5 14.5 SSE | 156
7/14/24 - 0850 63.4 56 47.3 54.6 SW | 222 4.2 9.7 SE | 129
7/14/24 - 0845 62.2 56 46.2 53.6 WSW | 238 3.6 11.6 S | 182
7/14/24 - 0840 59.6 56 44.0 51.6 SSW | 201 2.7 11.2 S | 177
7/14/24 - 0835 56.8 56 41.4 49.1 WSW | 255 3.9 15.0 SW | 232
7/14/24 - 0830 54.0 57 39.1 46.8 S | 191 4.3 14.1 SSW | 201
7/14/24 - 0825 56.1 56 40.8 48.6 S | 186 2.2 10.4 S | 177
7/14/24 - 0820 55.7 56 40.5 48.2 S | 175 4.3 15.0 S | 189
7/14/24 - 0815 52.8 57 37.8 45.8 S | 173 3.5 8.4 S | 175
7/14/24 - 0810 51.8 57 36.9 44.9 SW | 220 2.7 8.7 WSW | 242
7/14/24 - 0805 53.0 56 37.9 45.8 SW | 216 3.3 9.9 SSW | 199
7/14/24 - 0800 51.6 56 36.6 44.7 S | 175 3.3 9.2 S | 173
7/14/24 - 0755 52.3 56 37.3 45.3 S | 184 3.5 7.8 S | 172
7/14/24 - 0750 51.4 57 36.6 44.6 S | 190 5.3 12.6 S | 190
7/14/24 - 0745 50.9 56 36.0 44.1 S | 182 5.6 15.2 S | 183
7/14/24 - 0740 51.8 57 37.0 44.9 S | 181 5.1 13.2 S | 173
7/14/24 - 0735 53.8 57 38.7 46.6 SSW | 193 5.6 12.2 S | 187
7/14/24 - 0730 53.8 57 38.8 46.6 S | 178 5.9 13.3 SE | 137
7/14/24 - 0725 51.7 57 36.8 44.8 SW | 218 3.1 9.1 SSW | 193
7/14/24 - 0720 50.9 57 36.1 44.1 SSE | 156 2.4 9.3 S | 186
7/14/24 - 0715 50.8 57 36.0 44.0 S | 191 3.2 9.1 S | 187
7/14/24 - 0710 50.1 57 35.4 43.5 S | 173 5.1 9.7 S | 191
7/14/24 - 0705 50.4 57 35.6 43.6 S | 190 2.7 7.6 S | 180
7/14/24 - 0700 50.7 57 35.9 44.0 S | 180 3.3 8.4 S | 191
7/14/24 - 0655 49.9 57 35.1 43.2 S | 182 3.9 7.3 S | 189
7/14/24 - 0650 49.7 57 35.0 43.1 SW | 233 1.1 5.7 WSW | 255
7/14/24 - 0645 51.2 56 36.3 44.3 SW | 214 1.3 6.4 SW | 222
7/14/24 - 0640 51.1 57 36.2 44.3 SSW | 201 3.2 6.9 SSW | 209
7/14/24 - 0635 51.2 56 36.2 44.3 S | 176 2.4 7.8 SSW | 194
7/14/24 - 0630 51.9 56 36.8 44.9 SSW | 208 1.3 8.6 S | 179
7/14/24 - 0625 51.7 56 36.5 44.6 SSW | 202 0.7 4.1 SE | 127
7/14/24 - 0620 52.8 56 37.6 45.7 SW | 218 0.7 3.4 W | 273
7/14/24 - 0615 56.7 55 40.8 48.8 SSW | 201 0.3 1.9 WSW | 241
7/14/24 - 0610 58.9 55 42.9 50.7 SSW | 195 1.6 5.1 SSW | 210
7/14/24 - 0605 64.2 54 47.3 54.9 SSW | 202 0.8 3.0 S | 178
7/14/24 - 0600 67.8 54 50.6 58.0 SSW | 209 0.4 2.1 SSW | 211
7/14/24 - 0555 68.6 54 51.1 58.4 SW | 214 0.6 3.1 S | 189
7/14/24 - 0550 70.9 53 53.1 60.3 SSW | 200 0.6 2.3 SSW | 197
7/14/24 - 0545 72.4 53 54.4 61.5 SSW | 192 0.4 2.3 S | 171
7/14/24 - 0540 80.5 52 61.5 67.8 SSW | 210 0.1 0.8 SW | 218
7/14/24 - 0535 83.2 52 63.8 69.8 S | 184 0.0 0.2 SSW | 196
7/14/24 - 0530 87.2 52 67.2 72.8 N | 0 0.0 0.0 SSE | 148
7/14/24 - 0525 84.8 51 65.0 70.9 N | 0 0.0 0.0 SSE | 161
7/14/24 - 0520 87.7 51 67.3 72.9 SSE | 157 0.0 0.5 SSE | 162
7/14/24 - 0515 88.1 51 67.7 73.3 N | 0 0.0 0.0 SW | 226
7/14/24 - 0510 85.0 51 64.8 70.8 N | 0 0.0 0.0 SSW | 210
7/14/24 - 0505 84.7 51 64.5 70.5 N | 0 0.0 0.0 SSE | 159
7/14/24 - 0500 84.7 51 64.4 70.5 N | 0 0.0 0.0 WSW | 251
7/14/24 - 0455 82.6 51 62.6 68.9 N | 0 0.0 0.0 SE | 135
7/14/24 - 0450 81.2 51 61.4 67.8 N | 0 0.0 0.0 SE | 127
7/14/24 - 0445 79.6 51 60.0 66.6 S | 185 0.1 1.6 SSW | 200
7/14/24 - 0440 75.1 52 56.1 63.1 SSW | 204 0.0 0.2 SSW | 204
7/14/24 - 0435 74.2 52 55.2 62.4 N | 0 0.0 0.0 SW | 236
7/14/24 - 0430 72.5 52 53.8 61.1 SSW | 194 0.0 1.1 SSE | 165
7/14/24 - 0425 73.2 52 54.4 61.6 SW | 214 0.1 1.8 SW | 214
7/14/24 - 0420 73.4 52 54.4 61.7 SSW | 193 0.0 0.6 S | 182
7/14/24 - 0415 72.5 52 53.8 61.1 SSW | 207 0.1 1.2 SSW | 193
7/14/24 - 0410 70.5 52 52.1 59.6 WSW | 238 0.5 1.9 WSW | 245
7/14/24 - 0405 74.6 51 55.6 62.7 SSW | 202 0.0 0.6 SSW | 201
7/14/24 - 0400 71.2 52 52.7 60.1 SW | 235 0.9 2.6 WSW | 245
7/14/24 - 0355 75.3 51 56.2 63.2 SSW | 208 0.0 1.0 SSW | 210
7/14/24 - 0350 75.8 51 56.6 63.6 SW | 222 0.1 1.5 SW | 230
7/14/24 - 0345 77.5 51 58.0 64.9 SSW | 212 0.3 2.1 SW | 228
7/14/24 - 0340 75.5 51 56.4 63.4 SSW | 212 0.4 2.2 SSW | 204
7/14/24 - 0335 75.9 51 56.7 63.7 SW | 214 0.2 1.6 WSW | 238
7/14/24 - 0330 80.4 51 60.7 67.2 N | 0 0.0 0.0 SSW | 212
7/14/24 - 0325 78.4 51 59.0 65.7 S | 188 0.0 0.5 S | 184
7/14/24 - 0320 78.8 51 59.3 66.0 SSW | 199 0.0 1.4 SSW | 203
7/14/24 - 0315 76.8 51 57.6 64.4 N | 0 0.0 0.0 N | 6
7/14/24 - 0310 73.8 52 54.9 62.1 W | 260 0.0 0.1 W | 260
7/14/24 - 0305 75.8 52 56.7 63.7 SSW | 197 0.0 0.4 SSW | 206
7/14/24 - 0300 73.6 52 54.8 62.0 SSW | 198 0.1 0.6 SSW | 196
7/14/24 - 0255 72.2 52 53.6 60.9 SSW | 203 0.1 1.1 SSW | 213
7/14/24 - 0250 68.8 52 50.7 58.3 SSW | 211 0.4 1.9 SSW | 198
7/14/24 - 0245 70.3 52 52.0 59.4 SSW | 211 0.4 2.3 S | 182
7/14/24 - 0240 71.5 52 53.1 60.4 SSW | 197 0.2 1.8 S | 188
7/14/24 - 0235 70.9 52 52.7 60.0 SSW | 206 0.3 2.3 SSW | 192
7/14/24 - 0230 67.8 53 50.0 57.6 SSW | 204 0.8 3.1 SSW | 195
7/14/24 - 0225 68.6 53 50.7 58.2 SSW | 206 0.4 1.8 SSW | 207
7/14/24 - 0220 66.7 53 49.2 56.8 SW | 217 1.2 3.1 SW | 220
7/14/24 - 0215 67.1 53 49.6 57.1 SW | 235 1.0 3.6 SW | 218
7/14/24 - 0210 70.2 53 52.4 59.6 SW | 220 0.1 1.5 SSW | 199
7/14/24 - 0205 74.3 53 56.0 62.9 SSW | 206 0.0 0.1 SSW | 206
7/14/24 - 0200 72.9 53 54.9 61.9 SSW | 209 0.0 0.9 SSW | 207
7/14/24 - 0155 71.6 53 53.8 60.8 SSW | 206 0.3 1.4 SSW | 200
7/14/24 - 0150 73.4 53 55.4 62.3 WSW | 250 0.4 3.3 WSW | 238
7/14/24 - 0145 72.2 53 54.3 61.4 WSW | 242 0.1 1.4 WSW | 252
7/14/24 - 0140 72.4 54 54.6 61.6 WSW | 252 0.8 2.2 WSW | 252
7/14/24 - 0135 71.2 53 53.5 60.6 SW | 235 0.1 1.7 WSW | 238
7/14/24 - 0130 75.5 53 57.3 64.0 WSW | 253 0.0 0.2 WSW | 248
7/14/24 - 0125 74.2 54 56.3 63.1 WSW | 249 0.1 1.8 W | 261
7/14/24 - 0120 70.9 54 53.3 60.4 WSW | 242 0.3 1.8 WSW | 252
7/14/24 - 0115 69.1 54 51.7 59.0 SSW | 202 0.5 2.3 SSW | 203
7/14/24 - 0110 68.2 54 50.9 58.2 SW | 223 0.2 1.2 SSW | 200
7/14/24 - 0105 67.3 54 50.1 57.4 SW | 228 0.5 1.9 SW | 218
7/14/24 - 0100 67.9 54 50.7 58.0 SSW | 202 1.4 3.7 SSW | 200
7/14/24 - 0055 70.3 54 52.9 60.0 SW | 216 0.8 2.2 SSW | 213
7/14/24 - 0050 69.8 54 52.5 59.6 SSW | 206 1.6 4.2 SSW | 199
7/14/24 - 0045 72.8 54 55.1 62.0 SW | 216 0.8 2.7 SW | 217
7/14/24 - 0040 72.1 54 54.5 61.4 SSW | 205 0.9 3.4 S | 183
7/14/24 - 0035 74.8 54 56.8 63.6 SW | 214 0.5 1.8 SSW | 211
7/14/24 - 0030 82.3 53 63.7 69.7 SW | 226 0.1 2.1 SW | 220
7/14/24 - 0025 79.3 54 61.2 67.4 SW | 218 0.5 2.1 SSW | 202
7/14/24 - 0020 76.3 54 58.3 64.9 SSW | 210 1.1 2.7 SW | 225
7/14/24 - 0015 80.3 54 61.9 68.1 SW | 223 0.8 3.4 SW | 219
7/14/24 - 0010 82.4 53 63.8 69.8 SW | 221 0.4 2.4 SSW | 200
7/14/24 - 0005 82.5 53 63.9 69.8 SSW | 206 1.1 2.9 SSW | 200
7/14/24 - 0000 86.4 53 67.4 72.9 WSW | 244 0.5 2.0 WSW | 252
7/13/24 - 2355 86.0 53 67.0 72.6 WSW | 242 0.0 0.9 WSW | 241
7/13/24 - 2350 89.8 53 70.5 75.7 SSW | 196 0.7 2.9 SSE | 167
7/13/24 - 2345 86.6 53 67.6 73.1 SW | 217 0.4 1.9 S | 175
7/13/24 - 2340 90.2 53 70.9 76.0 WSW | 258 0.2 1.6 W | 259
7/13/24 - 2335 89.0 53 69.7 74.9 SSW | 206 1.8 3.7 S | 191
7/13/24 - 2330 93.6 53 73.9 78.6 SW | 235 0.6 3.6 SSW | 207
7/13/24 - 2325 94.8 53 75.0 79.5 WNW | 284 0.8 2.2 W | 266
7/13/24 - 2320 94.1 53 74.3 78.9 SW | 222 0.1 1.1 SW | 227
7/13/24 - 2315 94.6 53 74.7 79.3 SSW | 205 0.3 1.5 SW | 218
7/13/24 - 2310 94.7 53 74.8 79.4 SSW | 199 0.2 1.4 S | 184
7/13/24 - 2305 97.6 53 77.5 81.7 N | 0 0.0 0.0 WSW | 246
7/13/24 - 2300 94.8 53 75.0 79.5 WSW | 247 0.1 2.3 WSW | 238
7/13/24 - 2255 94.3 53 74.6 79.2 SSW | 203 0.1 1.4 SSW | 202
7/13/24 - 2250 95.1 53 75.2 79.7 SW | 236 0.1 1.0 SW | 221
7/13/24 - 2245 94.5 53 74.8 79.3 WSW | 250 0.1 1.5 WSW | 257
7/13/24 - 2240 94.5 53 74.7 79.3 W | 260 0.1 0.6 W | 278
7/13/24 - 2235 96.0 53 76.1 80.5 W | 273 0.0 0.4 W | 278
7/13/24 - 2230 92.9 53 73.4 78.2 N | 0 0.0 0.0 N | 2
7/13/24 - 2225 89.8 53 70.6 75.8 NNE | 19 0.1 0.9 N | 352
7/13/24 - 2220 90.6 54 71.5 76.5 NE | 41 0.2 2.0 NNE | 25
7/13/24 - 2215 91.2 54 72.0 77.0 SSW | 208 0.1 1.0 SSW | 199
7/13/24 - 2210 86.3 54 67.6 73.1 SSE | 154 0.0 0.3 SSE | 153
7/13/24 - 2205 88.5 54 69.7 74.9 SSE | 166 0.0 0.8 SSE | 162
7/13/24 - 2200 83.3 54 65.0 70.8 N | 352 0.2 1.3 N | 349
7/13/24 - 2155 80.9 54 62.8 68.8 N | 355 0.5 1.8 N | 349
7/13/24 - 2150 82.2 54 64.1 70.0 NNW | 346 0.4 1.4 NW | 320
7/13/24 - 2145 84.3 54 66.1 71.7 N | 6 0.9 3.8 NNE | 19
7/13/24 - 2140 80.2 55 62.4 68.4 SSE | 158 0.6 2.5 SE | 141
7/13/24 - 2135 80.4 55 62.7 68.7 S | 174 0.5 3.5 S | 184
7/13/24 - 2130 78.0 55 60.6 66.8 S | 182 3.4 7.8 S | 188
7/13/24 - 2125 78.8 55 61.3 67.4 WNW | 290 1.1 5.3 N | 351
7/13/24 - 2120 76.3 55 59.1 65.4 NNW | 348 1.0 4.0 NE | 41
7/13/24 - 2115 76.5 55 59.4 65.6 N | 359 1.7 5.0 NNE | 18
7/13/24 - 2110 73.4 56 56.5 63.0 NNW | 338 2.8 5.4 NW | 314
7/13/24 - 2105 75.5 56 58.6 64.9 NNW | 328 2.9 4.6 NNW | 329
7/13/24 - 2100 68.4 56 52.3 59.1 WSW | 239 0.3 2.0 SSW | 212
7/13/24 - 2055 65.6 56 49.7 56.7 S | 182 2.1 5.2 S | 189
7/13/24 - 2050 63.9 57 48.3 55.3 SSE | 164 1.7 5.2 S | 170
7/13/24 - 2045 60.2 57 44.8 52.2 SSE | 152 1.4 6.1 ESE | 116
7/13/24 - 2040 55.1 57 40.3 47.9 WSW | 240 0.6 4.6 SSE | 165
7/13/24 - 2035 45.6 57 31.4 39.6 N | 8 0.1 1.6 NNW | 335
7/13/24 - 2030 43.7 57 29.6 38.0 ESE | 106 0.7 3.4 E | 97
7/13/24 - 2025 40.6 57 26.7 35.3 SSW | 211 1.2 4.4 SSW | 192
7/13/24 - 2020 41.2 57 27.3 35.8 SSW | 202 0.7 2.5 S | 185
7/13/24 - 2015 39.4 57 25.6 34.2 WSW | 250 1.0 4.1 W | 272
7/13/24 - 2010 39.4 58 25.6 34.2 NNE | 25 1.0 5.4 E | 96
7/13/24 - 2005 36.4 58 23.0 31.6 SE | 135 0.8 6.6 ESE | 104
7/13/24 - 2000 26.5 59 14.0 22.9 SE | 127 0.8 3.1 S | 189
7/13/24 - 1955 23.0 59 10.8 19.7 SSW | 207 1.5 5.6 SW | 231
7/13/24 - 1950 21.8 59 9.7 18.7 SSW | 206 2.3 7.7 S | 191
7/13/24 - 1945 23.8 59 11.5 20.4 SSW | 211 0.8 2.9 SW | 232
7/13/24 - 1940 29.6 58 16.8 25.6 S | 188 0.1 1.6 S | 187
7/13/24 - 1935 33.3 58 20.2 28.9 SE | 138 0.6 2.9 ESE | 120
7/13/24 - 1930 32.6 58 19.5 28.2 SSE | 153 0.5 3.1 SSE | 164
7/13/24 - 1925 30.0 58 17.1 26.0 SE | 134 1.6 7.0 ESE | 105
7/13/24 - 1920 30.1 58 17.2 26.0 ESE | 106 4.0 9.4 ESE | 102
7/13/24 - 1915 28.6 58 15.8 24.7 ESE | 121 3.9 7.7 SE | 129
7/13/24 - 1910 27.9 58 15.2 24.1 SSE | 150 4.0 8.6 SSE | 167
7/13/24 - 1905 31.4 58 18.5 27.2 SE | 146 3.5 8.0 SSE | 158
7/13/24 - 1900 23.4 59 11.2 20.1 SSE | 164 5.2 10.8 SSE | 158
7/13/24 - 1855 23.2 59 11.0 20.0 S | 181 4.5 9.5 SSE | 163
7/13/24 - 1850 22.1 59 10.0 19.0 S | 186 2.1 7.0 SSE | 155
7/13/24 - 1845 23.4 59 11.3 20.2 SSW | 207 1.8 7.5 SW | 234
7/13/24 - 1840 23.1 59 10.9 19.8 SW | 231 1.4 4.6 WSW | 240
7/13/24 - 1835 27.8 58 15.1 24.0 SSW | 201 2.1 8.6 SW | 228
7/13/24 - 1830 41.5 57 27.5 36.0 ENE | 66 0.1 2.0 E | 94
7/13/24 - 1825 39.1 57 25.2 33.9 WSW | 244 0.5 3.0 SSW | 213
7/13/24 - 1820 38.6 57 24.8 33.5 W | 269 2.5 10.8 SSW | 208
7/13/24 - 1815 42.5 57 28.4 36.8 NW | 309 1.6 8.6 SW | 226
7/13/24 - 1810 34.9 57 21.4 30.2 WSW | 240 2.0 6.5 WSW | 238
7/13/24 - 1805 37.0 57 23.3 32.1 WSW | 245 3.4 8.1 W | 268
7/13/24 - 1800 43.0 56 28.6 37.2 SW | 235 4.0 10.4 WSW | 238
7/13/24 - 1755 43.4 56 28.8 37.5 SW | 224 3.5 13.6 WSW | 248
7/13/24 - 1750 43.1 56 28.7 37.3 SW | 235 5.8 13.4 SSW | 206
7/13/24 - 1745 39.8 57 25.8 34.5 WSW | 245 6.9 14.3 SW | 230
7/13/24 - 1740 40.9 57 26.7 35.4 SSW | 198 8.2 23.4 SW | 215
7/13/24 - 1735 43.3 56 28.9 37.5 S | 190 8.8 21.9 S | 188
7/13/24 - 1730 52.5 56 37.1 45.3 SW | 217 5.6 14.6 WSW | 248
7/13/24 - 1725 48.4 56 33.3 41.8 SW | 226 6.5 15.9 S | 183
7/13/24 - 1720 54.5 55 38.9 47.0 S | 184 3.9 13.6 SSE | 158
7/13/24 - 1715 53.4 55 37.9 46.1 SW | 215 5.5 15.7 SSW | 197
7/13/24 - 1710 51.9 56 36.6 44.8 SW | 226 4.7 16.0 WSW | 247
7/13/24 - 1705 51.0 55 35.5 43.9 S | 184 5.1 17.4 SSW | 194
7/13/24 - 1700 52.1 55 36.5 44.9 WSW | 250 4.9 16.4 SW | 228
7/13/24 - 1655 49.4 55 34.1 42.6 SW | 226 5.7 19.1 WSW | 254
7/13/24 - 1650 44.3 56 29.5 38.2 SW | 229 6.5 19.3 WSW | 240
7/13/24 - 1645 46.3 56 31.4 40.0 WSW | 237 7.7 19.6 WSW | 255
7/13/24 - 1640 42.4 57 28.2 36.8 WSW | 240 5.9 14.5 W | 281
7/13/24 - 1635 37.1 58 23.8 32.3 SW | 235 5.8 16.7 W | 265
7/13/24 - 1630 35.5 59 22.6 31.0 SW | 218 2.6 10.0 SSW | 204
7/13/24 - 1625 23.4 60 11.8 20.3 SSW | 199 4.0 10.7 SW | 219
7/13/24 - 1620 19.0 62 8.0 16.4 SW | 236 2.9 10.3 W | 267
7/13/24 - 1615 16.4 62 5.8 14.0 SSW | 199 2.9 7.6 S | 177
7/13/24 - 1610 12.8 62 2.3 10.8 SSW | 206 4.0 8.7 SSW | 201
7/13/24 - 1605 8.4 63 -1.7 6.8 SSW | 208 5.0 13.9 SSW | 197
7/13/24 - 1600 5.1 63 -4.7 3.9 SSW | 192 2.6 13.0 SE | 143
7/13/24 - 1555 4.1 63 -5.7 2.9 SSW | 212 4.1 11.6 SSW | 198
7/13/24 - 1550 3.5 64 -6.0 2.4 SE | 146 1.1 4.8 SSE | 158
7/13/24 - 1545 3.3 64 -6.3 2.2 NNW | 338 2.4 8.1 NW | 319
7/13/24 - 1540 2.5 64 -6.9 1.5 WNW | 284 2.5 7.8 WSW | 242
7/13/24 - 1535 1.9 65 -7.2 1.0 SSW | 196 1.7 8.5 SSE | 152
7/13/24 - 1530 3.4 64 -6.0 2.3 WSW | 244 1.2 7.9 WNW | 288
7/13/24 - 1525 -0.1 66 -9.0 -0.8 SSW | 205 2.8 9.3 SSW | 205
7/13/24 - 1520 2.3 65 -6.8 1.4 SSE | 156 1.2 5.1 S | 185
Max 104.0 66 82.9 86.2 - 8.8 23.4 -
Avg 54.6 56 39.1 46.6 - 2.0 6.5 -
Min -0.1 51 -9.0 -0.8 - 0.0 0.0 -